createdAt,value
2022-12-03T00:00:00.716Z,24.95
2022-12-03T00:02:02.148Z,23.85
2022-12-03T00:04:03.702Z,25.98
2022-12-03T00:06:05.267Z,26.67
2022-12-03T00:08:06.663Z,21.60
2022-12-03T00:10:08.196Z,27.65
2022-12-03T00:12:09.552Z,21.98
2022-12-03T00:14:11.012Z,24.00
2022-12-03T00:16:12.434Z,25.60
2022-12-03T00:18:13.791Z,23.92
2022-12-03T00:20:33.199Z,20.98
2022-12-03T00:22:34.695Z,21.88
2022-12-03T00:24:36.059Z,22.17
2022-12-03T00:26:37.361Z,21.65
2022-12-03T00:28:38.664Z,21.45
2022-12-03T00:30:40.128Z,22.67
2022-12-03T00:32:41.603Z,19.05
2022-12-03T00:34:42.978Z,20.27
2022-12-03T00:36:44.329Z,20.83
2022-12-03T00:38:45.783Z,19.77
2022-12-03T00:40:47.128Z,20.38
2022-12-03T00:42:48.508Z,22.05
2022-12-03T00:44:50.352Z,21.05
2022-12-03T00:46:51.865Z,18.00
2022-12-03T00:48:53.384Z,20.85
2022-12-03T00:50:54.650Z,20.55
2022-12-03T00:52:55.990Z,19.70
2022-12-03T00:54:57.703Z,20.60
2022-12-03T00:56:59.032Z,20.42
2022-12-03T00:59:00.416Z,18.80
2022-12-03T01:01:02.031Z,21.00
2022-12-03T01:03:03.777Z,19.27
2022-12-03T01:05:06.072Z,18.33
2022-12-03T01:07:07.478Z,22.08
2022-12-03T01:09:08.858Z,19.58
2022-12-03T01:11:30.110Z,21.20
2022-12-03T01:13:31.469Z,20.58
2022-12-03T01:15:32.826Z,20.30
2022-12-03T01:17:34.248Z,21.88
2022-12-03T01:19:35.873Z,19.02
2022-12-03T01:21:37.854Z,18.35
2022-12-03T01:23:39.182Z,18.02
2022-12-03T01:25:40.493Z,17.85
2022-12-03T01:27:41.762Z,18.13
2022-12-03T01:29:43.112Z,17.10
2022-12-03T01:32:02.926Z,17.80
2022-12-03T01:34:04.452Z,17.90
2022-12-03T01:36:06.000Z,18.17
2022-12-03T01:38:07.361Z,19.42
2022-12-03T01:40:11.265Z,19.42
2022-12-03T01:42:17.188Z,19.25
2022-12-03T01:44:22.746Z,19.10
2022-12-03T01:46:27.190Z,19.42
2022-12-03T01:48:31.499Z,20.52
2022-12-03T01:50:33.261Z,22.48
2022-12-03T01:52:36.235Z,20.95
2022-12-03T01:54:38.800Z,22.23
2022-12-03T01:56:40.309Z,23.48
2022-12-03T01:58:42.020Z,23.40
2022-12-03T02:00:43.327Z,20.60
2022-12-03T02:02:44.696Z,20.40
2022-12-03T02:04:48.513Z,22.73
2022-12-03T02:06:50.012Z,21.95
2022-12-03T02:08:51.330Z,23.05
2022-12-03T02:10:52.750Z,22.70
2022-12-03T02:12:57.297Z,25.48
2022-12-03T02:14:59.210Z,23.15
2022-12-03T02:17:00.552Z,24.25
2022-12-03T02:19:02.027Z,25.75
2022-12-03T02:21:35.599Z,24.33
2022-12-03T02:24:01.680Z,27.80
2022-12-03T02:26:03.273Z,27.48
2022-12-03T02:28:06.004Z,26.58
2022-12-03T02:30:07.812Z,25.98
2022-12-03T02:32:09.185Z,27.95
2022-12-03T02:34:10.940Z,32.08
2022-12-03T02:36:12.557Z,35.70
2022-12-03T02:38:19.538Z,39.88
2022-12-03T02:40:22.726Z,34.13
2022-12-03T02:42:36.210Z,39.38
2022-12-03T02:44:37.896Z,34.95
2022-12-03T02:46:39.361Z,32.53
2022-12-03T02:48:41.765Z,30.98
2022-12-03T02:50:48.112Z,34.83
2022-12-03T02:52:50.561Z,26.98
2022-12-03T02:54:52.261Z,31.77
2022-12-03T02:56:53.845Z,27.30
2022-12-03T02:58:57.072Z,27.42
2022-12-03T03:00:59.246Z,27.27
2022-12-03T03:03:01.176Z,25.92
2022-12-03T03:05:03.096Z,24.90
2022-12-03T03:07:04.490Z,23.80
2022-12-03T03:09:06.012Z,27.05
2022-12-03T03:11:07.639Z,24.10
2022-12-03T03:13:11.256Z,22.17
2022-12-03T03:15:13.193Z,22.95
2022-12-03T03:17:14.750Z,21.55
2022-12-03T03:19:16.044Z,24.33
2022-12-03T03:21:17.416Z,26.52
2022-12-03T03:23:20.395Z,27.90
2022-12-03T03:25:22.491Z,27.83
2022-12-03T03:27:23.952Z,29.80
2022-12-03T03:29:25.352Z,27.60
2022-12-03T03:31:26.768Z,27.15
2022-12-03T03:33:28.333Z,31.90
2022-12-03T03:35:29.752Z,32.05
2022-12-03T03:37:31.198Z,27.50
2022-12-03T03:39:32.611Z,29.52
2022-12-03T03:41:34.096Z,33.33
2022-12-03T03:43:36.803Z,36.28
2022-12-03T03:45:38.129Z,29.90
2022-12-03T03:47:39.784Z,28.27
2022-12-03T03:49:41.552Z,35.42
2022-12-03T03:51:43.060Z,36.00
2022-12-03T03:53:47.970Z,32.88
2022-12-03T03:55:49.425Z,29.25
2022-12-03T03:57:50.881Z,29.90
2022-12-03T03:59:52.922Z,29.15
2022-12-03T04:01:54.244Z,27.55
2022-12-03T04:03:55.965Z,32.20
2022-12-03T04:05:57.392Z,28.35
2022-12-03T04:07:59.417Z,31.33
2022-12-03T04:10:20.786Z,30.55
2022-12-03T04:12:41.036Z,28.77
2022-12-03T04:14:42.361Z,36.83
2022-12-03T04:16:43.717Z,88.28
2022-12-03T04:18:45.152Z,36.35
2022-12-03T04:20:46.450Z,35.20
2022-12-03T04:22:47.790Z,31.77
2022-12-03T04:24:49.229Z,30.52
2022-12-03T04:27:09.008Z,31.38
2022-12-03T04:29:10.624Z,30.33
2022-12-03T04:31:30.631Z,40.90
2022-12-03T04:33:50.386Z,29.60
2022-12-03T04:35:51.793Z,30.65
2022-12-03T04:37:53.137Z,33.88
2022-12-03T04:39:54.516Z,33.38
2022-12-03T04:41:55.942Z,31.35
2022-12-03T04:44:15.875Z,27.83
2022-12-03T04:46:17.391Z,27.45
2022-12-03T04:48:18.986Z,30.77
2022-12-03T04:50:20.312Z,32.50
2022-12-03T04:52:21.808Z,28.38
2022-12-03T04:54:23.327Z,29.10
2022-12-03T04:56:24.592Z,26.80
2022-12-03T04:58:25.926Z,27.92
2022-12-03T05:00:27.247Z,23.15
2022-12-03T05:02:28.641Z,26.42
2022-12-03T05:04:29.983Z,20.70
2022-12-03T05:06:31.290Z,23.25
2022-12-03T05:08:32.626Z,20.63
2022-12-03T05:10:33.988Z,22.90
2022-12-03T05:12:35.376Z,22.98
2022-12-03T05:14:36.772Z,24.08
2022-12-03T05:16:38.475Z,21.67
2022-12-03T05:18:39.842Z,21.00
2022-12-03T05:20:41.330Z,21.92
2022-12-03T05:22:42.667Z,20.63
2022-12-03T05:24:43.940Z,21.52
2022-12-03T05:26:45.241Z,21.05
2022-12-03T05:28:46.584Z,20.90
2022-12-03T05:30:48.200Z,21.40
2022-12-03T05:32:50.001Z,22.73
2022-12-03T05:34:51.602Z,21.25
2022-12-03T05:36:53.149Z,20.17
2022-12-03T05:38:54.524Z,23.17
2022-12-03T05:40:55.899Z,22.80
2022-12-03T05:42:57.306Z,19.50
2022-12-03T05:44:59.070Z,20.80
2022-12-03T05:47:00.419Z,20.27
2022-12-03T05:49:01.785Z,19.50
2022-12-03T05:51:03.202Z,19.25
2022-12-03T05:53:04.760Z,20.60
2022-12-03T05:55:06.501Z,19.50
2022-12-03T05:57:07.848Z,21.35
2022-12-03T05:59:09.168Z,19.77
2022-12-03T06:01:10.512Z,19.65
2022-12-03T06:03:11.982Z,19.75
2022-12-03T06:05:14.556Z,19.75
2022-12-03T06:07:15.956Z,19.60
2022-12-03T06:09:17.269Z,20.25
2022-12-03T06:11:18.564Z,18.92
2022-12-03T06:13:20.069Z,19.23
2022-12-03T06:15:21.841Z,20.55
2022-12-03T06:17:23.165Z,20.42
2022-12-03T06:19:24.496Z,19.95
2022-12-03T06:21:25.774Z,21.88
2022-12-03T06:23:27.091Z,19.70
2022-12-03T06:25:28.675Z,19.10
2022-12-03T06:27:30.022Z,20.63
2022-12-03T06:29:31.322Z,19.27
2022-12-03T06:31:32.705Z,21.00
2022-12-03T06:33:34.052Z,23.33
2022-12-03T06:35:35.437Z,19.98
2022-12-03T06:37:36.774Z,21.63
2022-12-03T06:39:38.175Z,20.33
2022-12-03T06:41:39.768Z,21.08
2022-12-03T06:43:41.083Z,19.00
2022-12-03T06:45:47.535Z,21.20
2022-12-03T06:47:49.232Z,21.45
2022-12-03T06:49:50.588Z,20.90
2022-12-03T06:51:51.922Z,19.85
2022-12-03T06:53:53.282Z,19.77
2022-12-03T06:55:54.617Z,19.70
2022-12-03T06:57:56.083Z,20.75
2022-12-03T06:59:57.624Z,17.48
2022-12-03T07:01:58.984Z,20.63
2022-12-03T07:04:00.425Z,20.40
2022-12-03T07:06:01.887Z,20.25
2022-12-03T07:08:03.286Z,19.02
2022-12-03T07:10:05.017Z,22.35
2022-12-03T07:12:06.387Z,22.83
2022-12-03T07:14:11.752Z,27.48
2022-12-03T07:16:13.083Z,22.00
2022-12-03T07:18:14.460Z,20.23
2022-12-03T07:20:16.349Z,22.38
2022-12-03T07:22:17.626Z,19.83
2022-12-03T07:24:18.959Z,21.45
2022-12-03T07:26:20.761Z,19.75
2022-12-03T07:28:22.101Z,18.15
2022-12-03T07:30:24.238Z,17.45
2022-12-03T07:32:25.579Z,21.92
2022-12-03T07:34:27.219Z,18.27
2022-12-03T07:36:28.554Z,19.38
2022-12-03T07:38:29.929Z,19.40
2022-12-03T07:40:31.267Z,19.60
2022-12-03T07:42:32.682Z,19.05
2022-12-03T07:44:34.049Z,21.45
2022-12-03T07:46:35.459Z,22.92
2022-12-03T07:48:36.808Z,20.55
2022-12-03T07:50:38.177Z,19.85
2022-12-03T07:52:39.620Z,21.55
2022-12-03T07:54:40.985Z,23.95
2022-12-03T07:56:42.492Z,20.15
2022-12-03T07:58:44.062Z,18.60
2022-12-03T08:00:45.494Z,20.90
2022-12-03T08:02:47.225Z,21.50
2022-12-03T08:04:48.643Z,20.95
2022-12-03T08:06:50.079Z,18.77
2022-12-03T08:08:52.708Z,17.63
2022-12-03T08:10:54.028Z,19.70
2022-12-03T08:12:57.686Z,21.40
2022-12-03T08:14:59.069Z,18.60
2022-12-03T08:17:01.008Z,20.40
2022-12-03T08:19:02.708Z,17.65
2022-12-03T08:21:06.176Z,18.83
2022-12-03T08:23:11.876Z,17.52
2022-12-03T08:25:14.853Z,16.83
2022-12-03T08:27:19.310Z,19.52
2022-12-03T08:29:20.698Z,18.95
2022-12-03T08:31:32.394Z,17.88
2022-12-03T08:33:35.658Z,20.48
2022-12-03T08:35:36.981Z,18.70
2022-12-03T08:37:38.359Z,17.67
2022-12-03T08:39:44.109Z,21.25
2022-12-03T08:42:05.955Z,20.05
2022-12-03T08:44:29.687Z,17.75
2022-12-03T08:46:31.099Z,20.63
2022-12-03T08:48:33.752Z,19.83
2022-12-03T08:50:38.420Z,19.33
2022-12-03T08:52:39.763Z,20.17
2022-12-03T08:54:42.008Z,20.88
2022-12-03T08:56:44.850Z,20.83
2022-12-03T08:58:54.051Z,18.42
2022-12-03T09:00:58.464Z,19.38
2022-12-03T09:03:00.610Z,19.77
2022-12-03T09:05:11.140Z,18.85
2022-12-03T09:07:12.559Z,20.67
2022-12-03T09:09:14.040Z,22.17
2022-12-03T09:11:15.712Z,21.95
2022-12-03T09:13:17.202Z,20.90
2022-12-03T09:15:18.571Z,21.25
2022-12-03T09:17:19.924Z,20.30
2022-12-03T09:19:25.402Z,20.73
2022-12-03T09:21:26.816Z,19.98
2022-12-03T09:23:28.190Z,24.92
2022-12-03T09:25:29.594Z,20.85
2022-12-03T09:27:30.984Z,20.33
2022-12-03T09:29:32.388Z,21.50
2022-12-03T09:31:34.489Z,20.73
2022-12-03T09:33:36.016Z,21.92
2022-12-03T09:35:38.041Z,21.98
2022-12-03T09:37:39.424Z,23.08
2022-12-03T09:39:40.756Z,21.30
2022-12-03T09:41:42.358Z,22.90
2022-12-03T09:44:03.182Z,22.67
2022-12-03T09:46:05.724Z,20.63
2022-12-03T09:48:07.353Z,20.95
2022-12-03T09:50:12.965Z,23.75
2022-12-03T09:52:26.085Z,22.00
2022-12-03T09:54:29.642Z,20.27
2022-12-03T09:56:31.448Z,20.38
2022-12-03T09:58:34.857Z,20.65
2022-12-03T10:00:36.583Z,19.80
2022-12-03T10:02:38.017Z,20.25
2022-12-03T10:04:39.382Z,21.98
2022-12-03T10:06:45.593Z,20.25
2022-12-03T10:08:49.028Z,19.65
2022-12-03T10:10:51.696Z,20.00
2022-12-03T10:12:53.216Z,21.65
2022-12-03T10:14:55.366Z,20.85
2022-12-03T10:16:58.057Z,22.17
2022-12-03T10:19:00.449Z,23.17
2022-12-03T10:21:01.891Z,20.90
2022-12-03T10:23:03.256Z,19.75
2022-12-03T10:25:06.973Z,20.90
2022-12-03T10:27:22.567Z,22.27
2022-12-03T10:29:33.138Z,21.08
2022-12-03T10:33:38.446Z,26.15
2022-12-03T10:35:41.153Z,21.92
2022-12-03T10:38:00.898Z,19.20
2022-12-03T10:40:08.198Z,19.45
2022-12-03T10:42:18.828Z,18.92
2022-12-03T10:44:22.689Z,19.98
2022-12-03T10:46:24.302Z,19.42
2022-12-03T10:48:31.672Z,19.95
2022-12-03T10:50:33.505Z,21.58
2022-12-03T10:52:34.910Z,18.65
2022-12-03T10:54:36.827Z,18.67
2022-12-03T10:56:38.237Z,19.73
2022-12-03T10:58:40.391Z,18.63
2022-12-03T11:00:41.937Z,21.77
2022-12-03T11:02:43.299Z,19.77
2022-12-03T11:04:44.914Z,21.85
2022-12-03T11:06:46.636Z,19.73
2022-12-03T11:08:56.309Z,20.00
2022-12-03T11:11:07.441Z,21.95
2022-12-03T11:13:27.303Z,20.48
2022-12-03T11:15:42.193Z,21.52
2022-12-03T11:17:53.046Z,16.50
2022-12-03T11:19:54.543Z,18.05
2022-12-03T11:22:05.037Z,17.95
2022-12-03T11:24:16.226Z,16.95
2022-12-03T11:26:19.453Z,18.83
2022-12-03T11:28:21.287Z,20.38
2022-12-03T11:30:41.671Z,17.88
2022-12-03T11:32:43.050Z,15.63
2022-12-03T11:34:44.506Z,18.48
2022-12-03T11:37:04.612Z,18.85
2022-12-03T11:39:08.254Z,16.50
2022-12-03T11:41:14.062Z,18.05
2022-12-03T11:43:35.490Z,17.50
2022-12-03T11:45:37.932Z,18.73
2022-12-03T11:47:59.285Z,18.52
2022-12-03T11:50:00.667Z,17.27
2022-12-03T11:52:03.757Z,18.15
2022-12-03T11:54:05.272Z,20.15
2022-12-03T11:56:08.555Z,17.90
2022-12-03T11:58:16.466Z,18.67
2022-12-03T12:00:18.001Z,18.70
2022-12-03T12:02:19.793Z,17.70
2022-12-03T12:04:35.073Z,18.48
2022-12-03T12:06:42.491Z,17.10
2022-12-03T12:08:56.305Z,17.55
2022-12-03T12:10:57.935Z,16.85
2022-12-03T12:12:59.253Z,16.85
2022-12-03T12:15:00.578Z,18.00
2022-12-03T12:17:03.640Z,16.67
2022-12-03T12:19:23.473Z,17.50
2022-12-03T12:21:43.443Z,17.85
2022-12-03T12:23:44.766Z,15.57
2022-12-03T12:25:52.481Z,16.70
2022-12-03T12:27:55.656Z,18.38
2022-12-03T12:29:58.431Z,17.10
2022-12-03T12:32:04.594Z,16.63
2022-12-03T12:34:11.290Z,17.45
2022-12-03T12:36:12.646Z,17.50
2022-12-03T12:38:15.760Z,15.88
2022-12-03T12:40:17.894Z,17.02
2022-12-03T12:42:25.717Z,16.73
2022-12-03T12:44:27.164Z,16.92
2022-12-03T12:48:49.781Z,19.38
2022-12-03T12:50:53.189Z,18.35
2022-12-03T12:52:58.183Z,17.65
2022-12-03T12:55:04.673Z,16.08
2022-12-03T12:57:13.875Z,19.48
2022-12-03T12:59:21.982Z,19.27
2022-12-03T13:01:28.031Z,18.65
2022-12-03T13:03:33.188Z,19.33
2022-12-03T13:05:38.980Z,18.85
2022-12-03T13:07:41.372Z,17.15
2022-12-03T13:09:42.748Z,17.27
2022-12-03T13:11:47.742Z,19.48
2022-12-03T13:13:49.144Z,19.00
2022-12-03T13:15:52.056Z,18.67
2022-12-03T13:17:53.442Z,17.75
2022-12-03T13:20:03.720Z,19.52
2022-12-03T13:22:16.328Z,18.23
2022-12-03T13:24:32.004Z,19.98
2022-12-03T13:26:39.641Z,19.08
2022-12-03T13:28:41.760Z,18.65
2022-12-03T13:30:43.129Z,19.10
2022-12-03T13:32:44.499Z,16.17
2022-12-03T13:34:46.670Z,17.38
2022-12-03T13:36:53.592Z,17.95
2022-12-03T13:38:58.482Z,17.90
2022-12-03T13:41:01.262Z,17.48
2022-12-03T13:43:11.032Z,15.80
2022-12-03T13:45:15.157Z,17.67
2022-12-03T13:47:19.373Z,19.00
2022-12-03T13:49:21.933Z,17.27
2022-12-03T13:51:25.030Z,17.10
2022-12-03T13:53:33.018Z,18.20
2022-12-03T13:55:34.939Z,17.65
2022-12-03T13:57:36.242Z,18.90
2022-12-03T13:59:37.592Z,18.55
2022-12-03T14:01:39.094Z,19.75
2022-12-03T14:03:40.442Z,18.17
2022-12-03T14:05:41.730Z,18.65
2022-12-03T14:07:43.153Z,19.30
2022-12-03T14:09:44.670Z,17.65
2022-12-03T14:12:04.768Z,18.92
2022-12-03T14:14:06.081Z,18.23
2022-12-03T14:16:07.576Z,18.27
2022-12-03T14:18:09.044Z,16.35
2022-12-03T14:20:10.662Z,20.65
2022-12-03T14:22:12.087Z,17.88
2022-12-03T14:24:13.425Z,16.95
2022-12-03T14:26:15.236Z,17.70
2022-12-03T14:28:16.547Z,18.67
2022-12-03T14:30:17.875Z,17.67
2022-12-03T14:32:19.355Z,18.55
2022-12-03T14:34:20.722Z,17.17
2022-12-03T14:36:22.106Z,17.83
2022-12-03T14:38:23.448Z,16.38
2022-12-03T14:40:24.749Z,19.08
2022-12-03T14:42:26.085Z,18.27
2022-12-03T14:44:27.402Z,18.50
2022-12-03T14:46:28.771Z,17.90
2022-12-03T14:48:31.281Z,18.25
2022-12-03T14:50:32.600Z,18.80
2022-12-03T14:52:33.964Z,17.52
2022-12-03T14:54:35.517Z,18.02
2022-12-03T14:56:36.836Z,18.40
2022-12-03T14:58:38.544Z,17.73
2022-12-03T15:00:39.974Z,19.02
2022-12-03T15:02:41.365Z,20.23
2022-12-03T15:04:42.814Z,19.50
2022-12-03T15:06:44.181Z,15.48
2022-12-03T15:08:45.511Z,20.20
2022-12-03T15:10:46.855Z,18.95
2022-12-03T15:12:48.217Z,18.40
2022-12-03T15:14:49.698Z,17.13
2022-12-03T15:16:51.097Z,18.70
2022-12-03T15:18:52.480Z,18.80
2022-12-03T15:20:53.940Z,18.80
2022-12-03T15:22:55.267Z,18.25
2022-12-03T15:24:56.656Z,18.55
2022-12-03T15:26:58.060Z,18.27
2022-12-03T15:28:59.631Z,18.17
2022-12-03T15:31:01.109Z,17.63
2022-12-03T15:33:02.923Z,17.58
2022-12-03T15:35:04.281Z,18.15
2022-12-03T15:37:05.654Z,20.13
2022-12-03T15:39:07.220Z,17.20
2022-12-03T15:41:40.836Z,19.70
2022-12-03T15:43:42.136Z,19.92
2022-12-03T15:45:43.571Z,17.98
2022-12-03T15:47:45.262Z,19.27
2022-12-03T15:49:48.263Z,18.25
2022-12-03T15:51:49.818Z,20.63
2022-12-03T15:53:51.640Z,19.88
2022-12-03T15:55:52.960Z,20.30
2022-12-03T15:57:54.326Z,19.17
2022-12-03T15:59:56.153Z,19.08
2022-12-03T16:01:57.818Z,19.33
2022-12-03T16:03:59.218Z,19.55
2022-12-03T16:06:00.593Z,19.00
2022-12-03T16:08:02.015Z,20.83
2022-12-03T16:10:04.543Z,19.75
2022-12-03T16:12:05.915Z,19.50
2022-12-03T16:14:07.213Z,20.33
2022-12-03T16:16:08.714Z,19.55
2022-12-03T16:18:10.233Z,18.40
2022-12-03T16:20:11.667Z,19.17
2022-12-03T16:22:13.233Z,18.30
2022-12-03T16:24:14.604Z,19.80
2022-12-03T16:26:16.049Z,18.67
2022-12-03T16:28:17.528Z,19.80
2022-12-03T16:30:19.050Z,18.40
2022-12-03T16:32:20.382Z,19.33
2022-12-03T16:34:21.758Z,20.00
2022-12-03T16:36:23.137Z,20.25
2022-12-03T16:38:24.548Z,20.15
2022-12-03T16:40:25.940Z,20.60
2022-12-03T16:42:27.394Z,19.52
2022-12-03T16:44:33.028Z,20.55
2022-12-03T16:46:34.483Z,20.90
2022-12-03T16:48:35.907Z,20.45
2022-12-03T16:50:37.691Z,19.98
2022-12-03T16:52:39.048Z,20.80
2022-12-03T16:54:40.339Z,20.15
2022-12-03T16:56:41.685Z,22.08
2022-12-03T16:58:43.438Z,20.10
2022-12-03T17:00:44.745Z,20.40
2022-12-03T17:02:46.493Z,22.67
2022-12-03T17:04:47.854Z,20.98
2022-12-03T17:06:49.177Z,21.67
2022-12-03T17:08:50.626Z,20.70
2022-12-03T17:10:52.056Z,21.30
2022-12-03T17:13:10.068Z,20.05
2022-12-03T17:15:11.757Z,20.17
2022-12-03T17:17:15.314Z,21.30
2022-12-03T17:19:16.673Z,23.83
2022-12-03T17:21:18.019Z,20.60
2022-12-03T17:23:19.543Z,19.90
2022-12-03T17:25:21.040Z,21.23
2022-12-03T17:27:24.832Z,22.35
2022-12-03T17:29:26.178Z,21.77
2022-12-03T17:31:27.583Z,21.08
2022-12-03T17:33:28.930Z,19.48
2022-12-03T17:35:30.689Z,19.52
2022-12-03T17:37:31.994Z,21.88
2022-12-03T17:39:33.541Z,21.60
2022-12-03T17:41:35.117Z,23.80
2022-12-03T17:43:36.451Z,19.48
2022-12-03T17:45:37.816Z,21.20
2022-12-03T17:47:39.453Z,19.77
2022-12-03T17:49:40.928Z,19.48
2022-12-03T17:51:42.317Z,23.80
2022-12-03T17:53:43.652Z,21.27
2022-12-03T17:55:46.991Z,21.20
2022-12-03T17:57:48.361Z,19.13
2022-12-03T17:59:49.669Z,20.80
2022-12-03T18:01:51.132Z,23.52
2022-12-03T18:03:52.670Z,22.13
2022-12-03T18:05:55.223Z,23.17
2022-12-03T18:07:56.769Z,21.75
2022-12-03T18:09:58.168Z,22.10
2022-12-03T18:11:59.656Z,22.98
2022-12-03T18:14:03.745Z,23.05
2022-12-03T18:16:20.367Z,24.30
2022-12-03T18:18:21.768Z,23.13
2022-12-03T18:20:23.123Z,22.77
2022-12-03T18:22:24.563Z,22.77
2022-12-03T18:24:26.218Z,21.98
2022-12-03T18:26:27.622Z,23.40
2022-12-03T18:28:30.942Z,22.55
2022-12-03T18:30:32.335Z,24.38
2022-12-03T18:32:33.728Z,26.65
2022-12-03T18:34:35.040Z,23.35
2022-12-03T18:36:36.665Z,23.60
2022-12-03T18:38:39.331Z,25.38
2022-12-03T18:40:40.956Z,23.58
2022-12-03T18:42:42.303Z,24.60
2022-12-03T18:44:49.478Z,23.77
2022-12-03T18:46:53.922Z,24.45
2022-12-03T18:48:55.958Z,21.42
2022-12-03T18:50:57.327Z,22.17
2022-12-03T18:52:58.750Z,23.88
2022-12-03T18:55:00.084Z,25.00
2022-12-03T18:57:01.471Z,25.13
2022-12-03T18:59:02.904Z,23.73
2022-12-03T19:01:05.071Z,23.08
2022-12-03T19:03:06.598Z,20.58
2022-12-03T19:05:08.232Z,20.98
2022-12-03T19:07:10.931Z,23.95
2022-12-03T19:09:13.094Z,21.75
2022-12-03T19:11:14.592Z,23.50
2022-12-03T19:13:15.903Z,23.38
2022-12-03T19:15:17.267Z,21.02
2022-12-03T19:17:18.647Z,22.23
2022-12-03T19:19:19.979Z,19.75
2022-12-03T19:21:21.459Z,18.58
2022-12-03T19:23:23.053Z,16.92
2022-12-03T19:25:24.409Z,19.48
2022-12-03T19:27:25.727Z,15.70
2022-12-03T19:29:27.122Z,15.23
2022-12-03T19:31:30.659Z,14.10
2022-12-03T19:33:33.112Z,15.90
2022-12-03T19:35:38.849Z,18.02
2022-12-03T19:37:40.313Z,15.88
2022-12-03T19:39:43.084Z,16.70
2022-12-03T19:41:44.743Z,13.80
2022-12-03T19:43:50.210Z,15.77
2022-12-03T19:45:51.677Z,14.80
2022-12-03T19:47:53.144Z,15.65
2022-12-03T19:49:54.706Z,15.32
2022-12-03T19:51:56.261Z,16.52
2022-12-03T19:53:57.598Z,15.38
2022-12-03T19:56:02.588Z,14.55
2022-12-03T19:58:04.023Z,17.30
2022-12-03T20:00:06.635Z,13.98
2022-12-03T20:02:09.235Z,14.10
2022-12-03T20:04:11.252Z,15.65
2022-12-03T20:06:13.298Z,16.77
2022-12-03T20:08:14.690Z,17.20
2022-12-03T20:10:16.205Z,13.75
2022-12-03T20:12:17.553Z,16.58
2022-12-03T20:14:18.996Z,13.55
2022-12-03T20:16:20.779Z,13.48
2022-12-03T20:18:22.165Z,14.85
2022-12-03T20:20:23.532Z,15.35
2022-12-03T20:22:24.899Z,15.85
2022-12-03T20:24:26.559Z,17.88
2022-12-03T20:26:28.320Z,14.25
2022-12-03T20:28:29.660Z,13.65
2022-12-03T20:30:31.079Z,17.00
2022-12-03T20:32:32.453Z,16.65
2022-12-03T20:34:35.979Z,13.60
2022-12-03T20:36:37.678Z,14.30
2022-12-03T20:38:39.192Z,15.77
2022-12-03T20:40:40.598Z,16.48
2022-12-03T20:42:46.345Z,15.75
2022-12-03T20:44:50.915Z,14.82
2022-12-03T20:46:52.348Z,15.93
2022-12-03T20:48:54.115Z,12.75
2022-12-03T20:50:55.524Z,14.27
2022-12-03T20:53:22.642Z,14.10
2022-12-03T20:55:18.244Z,14.27
2022-12-03T20:57:19.768Z,16.13
2022-12-03T20:59:21.134Z,15.35
2022-12-03T21:01:24.238Z,15.48
2022-12-03T21:03:25.730Z,14.43
2022-12-03T21:05:27.161Z,13.88
2022-12-03T21:07:28.866Z,14.88
2022-12-03T21:09:30.260Z,13.77
2022-12-03T21:11:32.405Z,14.73
2022-12-03T21:13:33.756Z,13.82
2022-12-03T21:15:37.220Z,14.75
2022-12-03T21:17:39.917Z,14.13
2022-12-03T21:19:41.341Z,15.40
2022-12-03T21:21:42.696Z,14.23
2022-12-03T21:23:44.405Z,14.63
2022-12-03T21:25:45.848Z,12.95
2022-12-03T21:27:47.166Z,14.70
2022-12-03T21:29:48.573Z,12.90
2022-12-03T21:31:49.985Z,13.65
2022-12-03T21:33:53.374Z,15.70
2022-12-03T21:35:55.539Z,15.73
2022-12-03T21:37:57.369Z,15.23
2022-12-03T21:39:58.916Z,14.02
2022-12-03T21:42:33.909Z,14.52
2022-12-03T21:44:21.813Z,14.40
2022-12-03T21:47:12.464Z,12.43
2022-12-03T21:48:44.832Z,14.88
2022-12-03T21:50:46.416Z,12.90
2022-12-03T21:52:47.865Z,11.73
2022-12-03T21:54:51.837Z,14.07
2022-12-03T21:56:53.225Z,12.95
2022-12-03T21:58:57.614Z,13.73
2022-12-03T22:00:59.047Z,13.82
2022-12-03T22:03:00.572Z,15.10
2022-12-03T22:05:02.030Z,12.57
2022-12-03T22:07:04.161Z,13.40
2022-12-03T22:09:05.600Z,14.30
2022-12-03T22:11:07.924Z,14.68
2022-12-03T22:13:09.444Z,15.18
2022-12-03T22:15:18.141Z,17.05
2022-12-03T22:17:20.105Z,17.23
2022-12-03T22:19:22.099Z,14.35
2022-12-03T22:21:25.470Z,15.88
2022-12-03T22:23:26.867Z,17.10
2022-12-03T22:25:28.350Z,17.00
2022-12-03T22:27:29.715Z,16.55
2022-12-03T22:29:31.330Z,16.38
2022-12-03T22:31:32.816Z,17.30
2022-12-03T22:33:34.660Z,16.75
2022-12-03T22:35:36.071Z,17.17
2022-12-03T22:37:37.508Z,18.27
2022-12-03T22:39:38.835Z,17.27
2022-12-03T22:41:42.940Z,18.02
2022-12-03T22:43:44.803Z,15.75
2022-12-03T22:45:46.551Z,17.77
2022-12-03T22:47:48.008Z,19.83
2022-12-03T22:49:49.338Z,17.98
2022-12-03T22:51:50.714Z,18.65
2022-12-03T22:53:56.247Z,18.52
2022-12-03T22:55:58.757Z,18.63
2022-12-03T22:58:00.135Z,17.65
2022-12-03T23:00:01.532Z,17.20
2022-12-03T23:02:02.960Z,19.45
2022-12-03T23:04:04.895Z,17.17
2022-12-03T23:06:10.312Z,18.05
2022-12-03T23:08:13.434Z,18.00
2022-12-03T23:10:14.865Z,18.85
2022-12-03T23:12:16.256Z,17.63
2022-12-03T23:14:17.617Z,20.42
2022-12-03T23:16:20.916Z,17.30
2022-12-03T23:18:22.474Z,16.38
2022-12-03T23:20:24.016Z,21.30
2022-12-03T23:22:25.354Z,17.77
2022-12-03T23:24:27.224Z,18.90
2022-12-03T23:26:28.977Z,18.27
2022-12-03T23:28:31.036Z,19.35
2022-12-03T23:30:35.110Z,18.63
2022-12-03T23:32:36.759Z,18.20
2022-12-03T23:34:38.119Z,18.13
2022-12-03T23:36:39.536Z,18.83
2022-12-03T23:38:41.142Z,18.48
2022-12-03T23:40:47.882Z,19.23
2022-12-03T23:42:49.750Z,18.92
2022-12-03T23:44:51.197Z,18.30
2022-12-03T23:46:52.534Z,17.00
2022-12-03T23:48:53.925Z,16.38
2022-12-03T23:50:55.223Z,18.38
2022-12-03T23:52:56.692Z,18.60
2022-12-03T23:54:58.035Z,18.45
2022-12-03T23:56:59.405Z,19.05
2022-12-03T23:59:00.722Z,18.30
